KELD

South Arkansas Regional at Goodwin Field Airport

El Dorado, Arkansas, USA
METAR KELD 230453Z AUTO 00000KT 10SM CLR 08/08 A3022 RMK AO2 SLP231 T00830078
Observed Flight Rules
Oct-23 @ 04:53 UTC (24 minutes ago) Visual Flight Rules
Visibility Clouds
10 miles
  • Clear skies
Temperatures Readings
Current 8°C / 46°F
Dewpoint 8°C / 46°F
Humidity 100%
Altimeter 30.22" Hg
Pressure 1023.1 hPa
Elevation 81
METAR KELD 230453Z AUTO 00000KT 10SM CLR 08/08 A3022 RMK AO2 SLP231 T00830078
Observed Flight Rules
Oct-23 @ 04:53 UTC
(24 minutes ago)
VFR
Clouds
  • Clear skies
Temperature Dewpoint
8°C / 46°F 8°C / 46°F
Humidity Altimeter Pressure
100% 30.22" Hg 1023.1 hPa